Hamilton, IA (50116)

12:42 PM CDT on July 06, 2015 (GMT -0500)
Knoxville Municipal | | Change Station
CLOSE
Current Station
Airport
Location: Knoxville,
Elevation: 928 ft
Nearby Weather Stations

Elev 928 ft 41.30 °N, 93.11 °W | Updated 7 minutes ago

Partly Cloudy
Partly Cloudy
75 °F
Feels Like 75 °F
N
6
Wind Variable Wind from West

Today
High -- | Low -- °F
--% Chance of Precip.
Yesterday
High -- | Low -- °F
Precip. -- in
5:45 AM 8:47 PM
Waning Gibbous, 73% visible
Pressure 29.90 in
Visibility 2.5 miles
Clouds Mostly Cloudy 1500 ft
Mostly Cloudy 2100 ft
Mostly Cloudy 7000 ft
Dew Point 73 °F
Humidity 94%
Rainfall 0.00 in
Snow Depth Not available.
UV 6 out of 12
Pollen 1.30 out of 12
Air Quality Not available.
Flu Activity Not available.
METAR KOXV 061735Z AUTO 27005KT 2 1/2SM +RA BKN015 BKN021 BKN070 24/23 A2990 RMK AO2

More Conditions Fewer Conditions

Pressure 29.90 in
Visibility 2.5 miles
Clouds Mostly Cloudy 1500 ft
Mostly Cloudy 2100 ft
Mostly Cloudy 7000 ft
Dew Point 73 °F
Humidity 94%
Rainfall 0.00 in
Snow Depth Not available.
UV 6 out of 12
Pollen 1.30 out of 12
Air Quality Not available.
Flu Activity Not available.
METAR KOXV 061735Z AUTO 27005KT 2 1/2SM +RA BKN015 BKN021 BKN070 24/23 A2990 RMK AO2

More Conditions Fewer Conditions

10-Day Weather Forecast

×

Almanac

Astronomy

Jul. 06, 2015 Rise Set
Actual Time
Civil Twilight
Nautical Twilight
Astronomical Twilight
Moon
Length of Visible Light
Length of Day
Tomorrow will be .
, % of the Moon is Illuminated

Today's Extremes

State Highs State Lows

Community

WunderPhotos

Upload Photos

1,835,607 photos uploaded!

WunderBlogs® & News

Nearby

Air Quality

  Air Quality AQ Index Pollutant
Not available.

Snow Depth

Station Depth Elevation

Earthquake Activity

City Distance Mag. Time & Date
Minimum magnitude displayed is 2.5.

Coastal Water Temperatures

Place Temperature

Stations

Nearby Weather Stations

Station Location Temp. Windchill Dew Point Humidity Wind Precip. Elev Updated Type